Graysville, Alabama
Current Conditions -  °F | °C
As of 9:53 AM on Monday 22 Dec 2014 (Local Time) from KBHM Reporting Station
Haze Haze  
Wind Chill: 51°   Ceiling: 600
Heat Index: 51°   Visibility: 4mi
Dew Point: 48°   Wind: 8mph
Humidity: 89%   Direction: 110°ESE
Pressure: 29.94"   Gusts: NA
Location:  33.62°N, 86.97°W
Report Text: KBHM 221553Z 11007KT 4SM BR OVC006 11/09 A2994 RMK AO2 SLP137 T01060089
Loading
Personal Weather Stations






























Interactive Weather Map New forecast layout! Learn more

10-Day Weather Forecast

Advertisements
Track Severe Weather on mobile